createdAt,value
2022-08-04T00:04:32.401Z,101162.28
2022-08-04T00:09:47.602Z,101169.78
2022-08-04T00:14:53.379Z,101168.09
2022-08-04T00:20:03.440Z,101169.78
2022-08-04T00:25:06.031Z,101174.91
2022-08-04T00:30:08.539Z,101161.38
2022-08-04T00:35:13.154Z,101162.16
2022-08-04T00:40:47.919Z,101155.81
2022-08-04T00:46:17.091Z,101152.41
2022-08-04T00:52:31.736Z,101153.78
2022-08-04T00:58:06.164Z,101151.75
2022-08-04T01:03:40.806Z,101144.94
2022-08-04T01:08:47.195Z,101158.06
2022-08-04T01:14:14.945Z,101158.47
2022-08-04T01:19:37.944Z,101144.22
2022-08-04T01:24:56.590Z,101142.38
2022-08-04T01:29:59.737Z,101150.66
2022-08-04T01:35:46.996Z,101140.56
2022-08-04T01:40:47.641Z,101142.84
2022-08-04T01:45:58.293Z,101135.81
2022-08-04T01:51:05.641Z,101138.25
2022-08-04T01:56:09.730Z,101134.78
2022-08-04T02:01:37.261Z,101129.88
2022-08-04T02:07:17.179Z,101120.84
2022-08-04T02:12:39.902Z,101116.13
2022-08-04T02:18:00.608Z,101117.59
2022-08-04T02:23:09.643Z,101112.84
2022-08-04T02:28:45.585Z,101119.81
2022-08-04T02:33:56.420Z,101111.56
2022-08-04T02:39:03.713Z,101110.59
2022-08-04T02:44:08.215Z,101116.34
2022-08-04T02:49:10.798Z,101102.34
2022-08-04T02:54:22.325Z,101102.94
2022-08-04T02:59:57.036Z,101095.75
2022-08-04T03:05:08.027Z,101101.34
2022-08-04T03:10:26.358Z,101099.38
2022-08-04T03:15:58.810Z,101098.66
2022-08-04T03:21:28.002Z,101090.25
2022-08-04T03:26:48.896Z,101091.38
2022-08-04T03:31:59.350Z,101079.81
2022-08-04T03:37:16.386Z,101087.75
2022-08-04T03:42:44.793Z,101081.31
2022-08-04T03:48:23.986Z,101083.75
2022-08-04T03:53:43.948Z,101083.75
2022-08-04T03:59:07.461Z,101078.03
2022-08-04T04:04:44.347Z,101077.94
2022-08-04T04:10:07.924Z,101078.78
2022-08-04T04:15:18.648Z,101084.63
2022-08-04T04:20:29.390Z,101080.97
2022-08-04T04:26:07.688Z,101077.81
2022-08-04T04:31:24.295Z,101075.25
2022-08-04T04:37:00.705Z,101071.84
2022-08-04T04:42:05.581Z,101083.41
2022-08-04T04:47:18.966Z,101079.63
2022-08-04T04:52:47.861Z,101079.28
2022-08-04T04:57:56.812Z,101082.09
2022-08-04T05:03:23.514Z,101088.78
2022-08-04T05:08:54.448Z,101082.69
2022-08-04T05:14:37.971Z,101088.31
2022-08-04T05:19:29.472Z,101095.72
2022-08-04T05:24:37.626Z,101097.31
2022-08-04T05:29:50.038Z,101087.69
2022-08-04T05:35:09.427Z,101089.50
2022-08-04T05:40:13.143Z,101094.97
2022-08-04T05:45:15.285Z,101105.19
2022-08-04T05:50:17.308Z,101106.03
2022-08-04T05:55:49.032Z,101118.44
2022-08-04T06:00:51.551Z,101108.09
2022-08-04T06:05:54.869Z,101112.81
2022-08-04T06:11:10.721Z,101117.34
2022-08-04T06:16:28.910Z,101119.53
2022-08-04T06:21:33.381Z,101109.56
2022-08-04T06:26:40.199Z,101104.56
2022-08-04T06:32:29.880Z,101114.16
2022-08-04T06:42:58.330Z,101110.81
2022-08-04T06:48:01.842Z,101118.25
2022-08-04T06:53:04.460Z,101127.59
2022-08-04T06:58:08.510Z,101137.22
2022-08-04T07:03:37.183Z,101130.63
2022-08-04T07:08:44.494Z,101137.56
2022-08-04T07:13:47.897Z,101145.72
2022-08-04T07:18:52.596Z,101153.50
2022-08-04T07:23:54.769Z,101148.78
2022-08-04T07:29:02.533Z,101166.47
2022-08-04T07:34:20.944Z,101163.78
2022-08-04T07:39:47.950Z,101162.56
2022-08-04T07:44:53.356Z,101169.72
2022-08-04T07:49:58.809Z,101176.28
2022-08-04T07:55:02.581Z,101175.97
2022-08-04T08:00:06.910Z,101182.72
2022-08-04T08:05:17.230Z,101184.09
2022-08-04T08:10:23.925Z,101179.22
2022-08-04T08:15:32.452Z,101185.88
2022-08-04T08:20:34.492Z,101188.59
2022-08-04T08:25:36.521Z,101188.47
2022-08-04T08:30:41.909Z,101182.97
2022-08-04T08:35:54.158Z,101199.44
2022-08-04T08:41:13.885Z,101191.63
2022-08-04T08:46:49.442Z,101195.19
2022-08-04T08:52:56.322Z,101196.97
2022-08-04T08:57:59.788Z,101198.97
2022-08-04T09:03:27.682Z,101201.41
2022-08-04T09:08:55.945Z,101203.03
2022-08-04T09:14:04.739Z,101206.69
2022-08-04T09:19:22.693Z,101210.38
2022-08-04T09:25:01.415Z,101225.75
2022-08-04T09:30:11.553Z,101217.69
2022-08-04T09:35:18.159Z,101219.78
2022-08-04T09:40:53.232Z,101228.34
2022-08-04T09:46:15.312Z,101231.13
2022-08-04T09:51:58.064Z,101221.81
2022-08-04T09:57:27.986Z,101242.34
2022-08-04T10:02:38.771Z,101242.38
2022-08-04T10:08:16.334Z,101247.22
2022-08-04T10:13:39.348Z,101245.81
2022-08-04T10:18:55.944Z,101254.88
2022-08-04T10:24:19.237Z,101264.78
2022-08-04T10:29:39.612Z,101260.19
2022-08-04T10:35:11.005Z,101262.81
2022-08-04T10:40:40.937Z,101246.69
2022-08-04T10:45:48.027Z,101252.00
2022-08-04T10:51:15.500Z,101267.63
2022-08-04T10:56:23.987Z,101268.00
2022-08-04T11:02:00.079Z,101275.41
2022-08-04T11:07:06.608Z,101273.09
2022-08-04T11:12:19.649Z,101271.53
2022-08-04T11:17:35.349Z,101274.00
2022-08-04T11:22:45.127Z,101292.38
2022-08-04T11:28:13.041Z,101306.78
2022-08-04T11:33:42.141Z,101307.50
2022-08-04T11:39:16.372Z,101306.31
2022-08-04T11:44:50.073Z,101309.41
2022-08-04T11:50:03.382Z,101308.25
2022-08-04T11:55:11.763Z,101323.75
2022-08-04T12:00:19.650Z,101324.84
2022-08-04T12:05:37.008Z,101324.19
2022-08-04T12:10:47.553Z,101334.91
2022-08-04T12:16:01.413Z,101328.09
2022-08-04T12:21:09.959Z,101324.78
2022-08-04T12:26:19.392Z,101319.16
2022-08-04T12:31:44.246Z,101322.88
2022-08-04T12:37:26.364Z,101319.75
2022-08-04T12:42:42.117Z,101325.75
2022-08-04T12:48:00.349Z,101329.13
2022-08-04T12:53:11.983Z,101328.53
2022-08-04T12:58:42.220Z,101344.03
2022-08-04T13:04:22.338Z,101344.75
2022-08-04T13:09:33.945Z,101353.94
2022-08-04T13:14:38.269Z,101351.72
2022-08-04T13:19:46.224Z,101356.72
2022-08-04T13:25:17.995Z,101356.06
2022-08-04T13:30:21.132Z,101345.22
2022-08-04T13:35:54.388Z,101348.38
2022-08-04T13:40:52.101Z,101361.97
2022-08-04T13:46:02.130Z,101365.28
2022-08-04T13:51:09.480Z,101355.97
2022-08-04T14:02:06.373Z,101359.41
2022-08-04T14:07:21.096Z,101351.44
2022-08-04T14:12:38.132Z,101366.44
2022-08-04T14:17:46.109Z,101368.69
2022-08-04T14:28:12.999Z,101376.66
2022-08-04T14:34:02.713Z,101376.59
2022-08-04T14:39:00.252Z,101374.91
2022-08-04T14:44:03.903Z,101379.72
2022-08-04T14:49:13.275Z,101375.47
2022-08-04T14:54:18.750Z,101375.22
2022-08-04T14:59:22.117Z,101372.66
2022-08-04T15:04:25.570Z,101383.72
2022-08-04T15:09:28.249Z,101378.31
2022-08-04T15:14:37.670Z,101387.63
2022-08-04T15:19:40.391Z,101377.72
2022-08-04T15:24:57.107Z,101381.63
2022-08-04T15:30:03.018Z,101390.94
2022-08-04T15:35:09.834Z,101388.03
2022-08-04T15:40:33.630Z,101388.28
2022-08-04T15:46:43.086Z,101391.91
2022-08-04T15:51:28.404Z,101394.47
2022-08-04T15:56:36.974Z,101393.94
2022-08-04T16:01:38.849Z,101400.03
2022-08-04T16:06:40.454Z,101392.78
2022-08-04T16:11:55.299Z,101402.41
2022-08-04T16:17:13.552Z,101402.69
2022-08-04T16:22:40.854Z,101409.47
2022-08-04T16:27:44.892Z,101411.97
2022-08-04T16:32:48.702Z,101403.16
2022-08-04T16:37:53.798Z,101413.13
2022-08-04T16:43:13.173Z,101403.72
2022-08-04T16:49:24.587Z,101409.34
2022-08-04T16:54:32.846Z,101399.72
2022-08-04T16:59:35.195Z,101399.94
2022-08-04T17:04:37.260Z,101406.00
2022-08-04T17:09:49.902Z,101402.25
2022-08-04T17:14:51.560Z,101401.31
2022-08-04T17:19:56.024Z,101411.66
2022-08-04T17:24:59.516Z,101395.81
2022-08-04T17:30:02.118Z,101398.81
2022-08-04T17:35:05.729Z,101404.44
2022-08-04T17:40:18.329Z,101405.94
2022-08-04T17:50:52.741Z,101400.44
2022-08-04T17:56:27.358Z,101368.91
2022-08-04T18:01:40.601Z,101371.72
2022-08-04T18:13:57.055Z,101401.38
2022-08-04T18:19:18.882Z,101406.69
2022-08-04T18:24:34.203Z,101413.66
2022-08-04T18:29:39.429Z,101410.44
2022-08-04T18:35:07.526Z,101419.81
2022-08-04T18:46:15.086Z,101404.53
2022-08-04T18:51:35.320Z,101415.66
2022-08-04T18:56:40.757Z,101436.56
2022-08-04T19:02:16.987Z,101447.88
2022-08-04T19:08:01.778Z,101458.53
2022-08-04T19:13:04.492Z,101453.56
2022-08-04T19:18:28.144Z,101454.72
2022-08-04T19:24:30.140Z,101475.28
2022-08-04T19:28:54.104Z,101482.84
2022-08-04T19:34:04.451Z,101502.16
2022-08-04T19:39:11.620Z,101501.03
2022-08-04T19:44:19.911Z,101511.19
2022-08-04T19:50:04.858Z,101498.53
2022-08-04T19:54:52.422Z,101491.09
2022-08-04T19:59:54.826Z,101490.09
2022-08-04T20:04:56.963Z,101496.41
2022-08-04T20:09:58.917Z,101481.06
2022-08-04T20:15:06.999Z,101497.75
2022-08-04T20:20:14.942Z,101499.84
2022-08-04T20:30:38.374Z,101521.16
2022-08-04T20:36:06.719Z,101509.31
2022-08-04T20:41:08.595Z,101516.41
2022-08-04T20:46:18.604Z,101516.88
2022-08-04T20:51:33.380Z,101534.81
2022-08-04T20:56:35.528Z,101538.56
2022-08-04T21:01:37.341Z,101546.97
2022-08-04T21:06:39.120Z,101542.22
2022-08-04T21:11:41.630Z,101521.59
2022-08-04T21:16:55.444Z,101524.66
2022-08-04T21:21:58.034Z,101517.56
2022-08-04T21:27:01.944Z,101526.91
2022-08-04T21:32:05.864Z,101523.09
2022-08-04T21:37:57.842Z,101503.50
2022-08-04T21:42:56.059Z,101525.31
2022-08-04T21:47:57.799Z,101516.66
2022-08-04T21:52:59.382Z,101508.75
2022-08-04T21:58:01.141Z,101517.50
2022-08-04T22:03:05.807Z,101519.19
2022-08-04T22:08:19.588Z,101516.00
2022-08-04T22:13:22.488Z,101525.13
2022-08-04T22:18:27.547Z,101505.13
2022-08-04T22:23:30.836Z,101491.97
2022-08-04T22:28:49.355Z,101475.66
2022-08-04T22:33:55.211Z,101484.06
2022-08-04T22:39:06.624Z,101481.94
2022-08-04T22:44:13.611Z,101491.75
2022-08-04T22:49:17.052Z,101481.28
2022-08-04T22:54:18.928Z,101479.88
2022-08-04T22:59:21.020Z,101474.00
2022-08-04T23:04:23.137Z,101469.97
2022-08-04T23:09:26.915Z,101474.72
2022-08-04T23:14:47.692Z,101483.34
2022-08-04T23:19:57.468Z,101458.03
2022-08-04T23:25:00.110Z,101477.63
2022-08-04T23:30:01.856Z,101486.97
2022-08-04T23:35:03.692Z,101486.06
2022-08-04T23:40:29.943Z,101476.13
2022-08-04T23:46:04.361Z,101486.06
2022-08-04T23:50:49.981Z,101495.31
2022-08-04T23:55:51.655Z,101503.91
